createdAt,value
2022-08-24T00:01:28.179Z,1.88
2022-08-24T00:03:59.953Z,2.03
2022-08-24T00:06:28.657Z,1.80
2022-08-24T00:08:58.060Z,1.65
2022-08-24T00:11:26.921Z,1.95
2022-08-24T00:13:54.456Z,1.80
2022-08-24T00:16:22.226Z,1.87
2022-08-24T00:18:49.642Z,1.70
2022-08-24T00:21:17.240Z,1.73
2022-08-24T00:23:44.116Z,1.95
2022-08-24T00:26:11.599Z,1.52
2022-08-24T00:28:38.592Z,2.00
2022-08-24T00:31:08.070Z,1.70
2022-08-24T00:33:35.542Z,1.90
2022-08-24T00:36:04.895Z,2.08
2022-08-24T00:38:34.758Z,1.85
2022-08-24T00:41:03.656Z,1.88
2022-08-24T00:43:30.824Z,1.77
2022-08-24T00:46:19.308Z,1.83
2022-08-24T00:48:50.810Z,1.98
2022-08-24T00:51:36.090Z,1.63
2022-08-24T00:54:15.778Z,1.92
2022-08-24T00:56:51.252Z,1.67
2022-08-24T00:59:26.633Z,1.50
2022-08-24T01:01:56.616Z,1.50
2022-08-24T01:04:36.040Z,1.80
2022-08-24T01:07:04.359Z,1.90
2022-08-24T01:09:31.243Z,1.55
2022-08-24T01:11:58.687Z,1.92
2022-08-24T01:14:26.686Z,1.65
2022-08-24T01:17:12.627Z,2.00
2022-08-24T01:19:46.882Z,1.65
2022-08-24T01:22:47.703Z,1.52
2022-08-24T01:25:14.928Z,1.88
2022-08-24T01:27:44.173Z,1.92
2022-08-24T01:30:15.863Z,1.63
2022-08-24T01:32:59.264Z,2.03
2022-08-24T01:35:27.390Z,1.58
2022-08-24T01:37:56.796Z,1.95
2022-08-24T01:40:34.670Z,1.70
2022-08-24T01:43:05.053Z,1.85
2022-08-24T01:45:32.113Z,1.88
2022-08-24T01:47:59.618Z,1.88
2022-08-24T01:50:27.086Z,1.77
2022-08-24T01:53:04.810Z,1.98
2022-08-24T01:55:34.474Z,1.77
2022-08-24T01:58:02.959Z,1.85
2022-08-24T02:00:30.720Z,1.90
2022-08-24T02:02:57.777Z,1.95
2022-08-24T02:05:25.707Z,2.33
2022-08-24T02:07:53.240Z,1.85
2022-08-24T02:10:20.643Z,1.85
2022-08-24T02:12:58.062Z,1.77
2022-08-24T02:15:32.164Z,2.08
2022-08-24T02:18:01.042Z,1.67
2022-08-24T02:20:29.278Z,1.90
2022-08-24T02:22:57.861Z,2.08
2022-08-24T02:25:27.629Z,2.13
2022-08-24T02:27:54.497Z,1.70
2022-08-24T02:30:21.490Z,1.48
2022-08-24T02:32:48.394Z,1.80
2022-08-24T02:35:15.965Z,1.80
2022-08-24T02:37:43.804Z,1.73
2022-08-24T02:40:12.422Z,2.00
2022-08-24T02:42:40.554Z,2.38
2022-08-24T02:45:09.687Z,1.92
2022-08-24T02:47:38.772Z,1.67
2022-08-24T02:50:10.983Z,1.98
2022-08-24T02:52:42.428Z,1.60
2022-08-24T02:55:20.073Z,2.25
2022-08-24T02:57:48.901Z,1.70
2022-08-24T03:00:21.368Z,2.10
2022-08-24T03:02:48.750Z,1.50
2022-08-24T03:05:16.434Z,2.40
2022-08-24T03:07:43.666Z,1.80
2022-08-24T03:10:11.470Z,1.75
2022-08-24T03:12:38.790Z,2.20
2022-08-24T03:15:09.836Z,2.08
2022-08-24T03:17:39.849Z,2.13
2022-08-24T03:20:13.380Z,1.77
2022-08-24T03:22:41.809Z,1.90
2022-08-24T03:25:11.213Z,2.40
2022-08-24T03:27:38.772Z,1.90
2022-08-24T03:30:09.587Z,2.33
2022-08-24T03:32:36.673Z,2.38
2022-08-24T03:35:04.530Z,2.08
2022-08-24T03:37:32.816Z,2.22
2022-08-24T03:40:00.418Z,2.00
2022-08-24T03:42:27.462Z,1.98
2022-08-24T03:44:54.343Z,2.03
2022-08-24T03:47:22.780Z,2.00
2022-08-24T03:49:50.295Z,2.00
2022-08-24T03:52:17.677Z,1.83
2022-08-24T03:54:44.596Z,1.63
2022-08-24T03:57:11.534Z,1.67
2022-08-24T03:59:43.983Z,2.30
2022-08-24T04:02:14.722Z,1.77
2022-08-24T04:04:41.778Z,1.83
2022-08-24T04:07:10.207Z,1.77
2022-08-24T04:09:37.064Z,1.75
2022-08-24T04:12:04.527Z,2.30
2022-08-24T04:14:31.485Z,1.92
2022-08-24T04:16:58.478Z,2.10
2022-08-24T04:19:26.895Z,2.00
2022-08-24T04:21:54.356Z,2.20
2022-08-24T04:24:21.250Z,1.75
2022-08-24T04:26:48.158Z,1.75
2022-08-24T04:29:19.340Z,2.10
2022-08-24T04:31:47.352Z,1.90
2022-08-24T04:34:17.448Z,2.00
2022-08-24T04:36:46.362Z,1.90
2022-08-24T04:39:14.172Z,1.90
2022-08-24T04:41:42.631Z,2.22
2022-08-24T04:44:09.832Z,2.10
2022-08-24T04:46:36.786Z,2.28
2022-08-24T04:49:04.394Z,1.90
2022-08-24T04:51:36.587Z,2.20
2022-08-24T04:54:05.477Z,1.85
2022-08-24T04:56:32.460Z,2.05
2022-08-24T04:58:59.406Z,2.08
2022-08-24T05:01:32.769Z,2.10
2022-08-24T05:04:00.274Z,1.90
2022-08-24T05:06:30.265Z,2.10
2022-08-24T05:09:02.457Z,2.13
2022-08-24T05:11:31.102Z,2.15
2022-08-24T05:13:59.110Z,1.88
2022-08-24T05:16:27.886Z,1.85
2022-08-24T05:18:56.684Z,2.17
2022-08-24T05:21:28.219Z,2.05
2022-08-24T05:23:55.175Z,2.20
2022-08-24T05:26:27.745Z,1.95
2022-08-24T05:29:00.275Z,1.67
2022-08-24T05:31:31.680Z,2.25
2022-08-24T05:34:00.853Z,2.17
2022-08-24T05:36:35.313Z,2.42
2022-08-24T05:39:11.672Z,2.17
2022-08-24T05:41:44.650Z,1.95
2022-08-24T05:44:14.829Z,2.20
2022-08-24T05:46:43.208Z,2.27
2022-08-24T05:49:10.726Z,2.03
2022-08-24T05:51:38.513Z,1.65
2022-08-24T05:54:06.374Z,1.90
2022-08-24T05:56:33.284Z,2.15
2022-08-24T05:59:00.676Z,2.17
2022-08-24T06:01:28.468Z,1.58
2022-08-24T06:03:58.026Z,1.95
2022-08-24T06:06:26.796Z,1.70
2022-08-24T06:08:57.334Z,1.83
2022-08-24T06:11:33.575Z,1.45
2022-08-24T06:14:07.223Z,1.60
2022-08-24T06:16:41.273Z,1.80
2022-08-24T06:19:11.793Z,1.30
2022-08-24T06:21:39.504Z,1.50
2022-08-24T06:24:07.152Z,1.60
2022-08-24T06:26:54.230Z,1.42
2022-08-24T06:29:22.051Z,1.63
2022-08-24T06:31:54.265Z,1.48
2022-08-24T06:34:24.506Z,1.48
2022-08-24T06:36:51.503Z,1.80
2022-08-24T06:39:19.027Z,1.40
2022-08-24T06:41:45.926Z,1.50
2022-08-24T06:44:12.785Z,1.40
2022-08-24T06:46:39.760Z,1.50
2022-08-24T06:49:06.716Z,1.70
2022-08-24T06:51:33.640Z,1.45
2022-08-24T06:54:00.871Z,1.55
2022-08-24T06:56:28.410Z,1.38
2022-08-24T06:58:55.696Z,1.50
2022-08-24T07:01:27.441Z,1.13
2022-08-24T07:03:55.997Z,1.50
2022-08-24T07:06:24.897Z,1.13
2022-08-24T07:08:53.385Z,1.30
2022-08-24T07:11:20.966Z,1.10
2022-08-24T07:13:49.618Z,1.25
2022-08-24T07:16:21.487Z,1.30
2022-08-24T07:18:50.196Z,1.50
2022-08-24T07:21:19.549Z,1.27
2022-08-24T07:23:49.549Z,1.23
2022-08-24T07:26:23.571Z,1.58
2022-08-24T07:29:06.314Z,1.40
2022-08-24T07:31:38.233Z,0.95
2022-08-24T07:34:09.091Z,1.45
2022-08-24T07:39:10.757Z,1.00
2022-08-24T07:42:02.624Z,0.95
2022-08-24T07:44:31.017Z,1.17
2022-08-24T07:47:04.105Z,1.13
2022-08-24T07:49:42.292Z,1.55
2022-08-24T07:52:10.657Z,1.20
2022-08-24T07:54:37.751Z,1.05
2022-08-24T07:57:06.597Z,1.25
2022-08-24T07:59:35.422Z,1.40
2022-08-24T08:02:03.099Z,1.20
2022-08-24T08:04:31.735Z,1.30
2022-08-24T08:07:00.937Z,1.35
2022-08-24T08:09:28.580Z,1.38
2022-08-24T08:11:55.595Z,1.50
2022-08-24T08:14:22.546Z,1.33
2022-08-24T08:16:49.985Z,1.17
2022-08-24T08:19:17.276Z,1.25
2022-08-24T08:22:09.448Z,1.52
2022-08-24T08:24:40.165Z,1.20
2022-08-24T08:27:07.166Z,1.10
2022-08-24T08:29:36.194Z,1.20
2022-08-24T08:32:03.719Z,0.82
2022-08-24T08:34:31.527Z,0.98
2022-08-24T08:37:00.137Z,1.00
2022-08-24T08:39:27.860Z,1.20
2022-08-24T08:42:40.119Z,1.20
2022-08-24T08:45:35.366Z,0.82
2022-08-24T08:48:57.221Z,1.15
2022-08-24T08:51:59.161Z,0.80
2022-08-24T08:54:55.359Z,0.85
2022-08-24T08:57:43.921Z,1.15
2022-08-24T09:00:25.574Z,1.20
2022-08-24T09:03:37.450Z,0.88
2022-08-24T09:06:24.187Z,0.75
2022-08-24T09:09:11.118Z,0.73
2022-08-24T09:12:22.051Z,0.80
2022-08-24T09:15:28.143Z,1.27
2022-08-24T09:18:41.425Z,1.00
2022-08-24T09:21:46.208Z,1.05
2022-08-24T09:24:19.751Z,1.08
2022-08-24T09:27:51.533Z,1.25
2022-08-24T09:30:26.632Z,0.95
2022-08-24T09:33:14.152Z,1.02
2022-08-24T09:35:55.496Z,0.80
2022-08-24T09:38:47.010Z,1.00
2022-08-24T09:41:43.876Z,0.80
2022-08-24T09:44:47.949Z,0.80
2022-08-24T09:47:45.508Z,0.77
2022-08-24T09:50:34.600Z,1.02
2022-08-24T09:54:07.706Z,1.02
2022-08-24T09:57:18.272Z,0.90
2022-08-24T10:00:24.209Z,0.70
2022-08-24T10:03:05.240Z,0.60
2022-08-24T10:06:08.484Z,1.20
2022-08-24T10:08:54.506Z,0.60
2022-08-24T10:11:42.775Z,0.80
2022-08-24T10:14:54.503Z,0.77
2022-08-24T10:17:37.192Z,0.82
2022-08-24T10:20:29.470Z,0.70
2022-08-24T10:23:24.103Z,1.00
2022-08-24T10:26:34.102Z,0.60
2022-08-24T10:29:51.699Z,0.70
2022-08-24T10:33:19.518Z,0.60
2022-08-24T10:36:36.229Z,0.80
2022-08-24T10:39:43.361Z,0.60
2022-08-24T10:43:02.746Z,0.80
2022-08-24T10:46:19.088Z,0.90
2022-08-24T10:49:39.273Z,0.80
2022-08-24T10:52:56.812Z,1.05
2022-08-24T10:55:30.338Z,0.93
2022-08-24T10:58:19.101Z,1.10
2022-08-24T11:00:46.586Z,0.82
2022-08-24T11:03:28.261Z,0.80
2022-08-24T11:05:57.468Z,0.90
2022-08-24T11:08:34.830Z,0.90
2022-08-24T11:11:22.285Z,1.30
2022-08-24T11:14:16.665Z,1.02
2022-08-24T11:16:47.249Z,0.85
2022-08-24T11:19:27.964Z,0.90
2022-08-24T11:22:04.092Z,0.80
2022-08-24T11:24:45.102Z,1.10
2022-08-24T11:27:17.963Z,0.93
2022-08-24T11:29:54.627Z,0.73
2022-08-24T11:33:23.741Z,0.93
2022-08-24T11:35:50.785Z,0.77
2022-08-24T11:38:30.621Z,0.90
2022-08-24T11:41:09.423Z,0.95
2022-08-24T11:44:32.103Z,0.80
2022-08-24T11:47:20.629Z,0.70
2022-08-24T11:50:25.542Z,0.70
2022-08-24T11:52:58.419Z,0.90
2022-08-24T11:55:51.743Z,0.80
2022-08-24T11:58:52.576Z,0.90
2022-08-24T12:01:29.570Z,1.00
2022-08-24T12:04:39.296Z,0.77
2022-08-24T12:07:24.633Z,0.85
2022-08-24T12:10:12.461Z,0.98
2022-08-24T12:12:58.662Z,0.90
2022-08-24T12:15:51.976Z,0.90
2022-08-24T12:18:34.353Z,0.82
2022-08-24T12:21:01.269Z,0.88
2022-08-24T12:23:38.005Z,1.15
2022-08-24T12:26:31.309Z,1.00
2022-08-24T12:29:07.445Z,0.95
2022-08-24T12:31:58.109Z,1.10
2022-08-24T12:34:37.124Z,1.00
2022-08-24T12:37:16.681Z,0.85
2022-08-24T12:40:17.385Z,1.27
2022-08-24T12:43:14.492Z,1.10
2022-08-24T12:45:41.830Z,0.90
2022-08-24T12:48:30.223Z,1.00
2022-08-24T12:51:21.875Z,1.02
2022-08-24T12:54:14.168Z,1.08
2022-08-24T12:57:27.697Z,1.00
2022-08-24T13:00:07.059Z,0.82
2022-08-24T13:02:47.985Z,0.95
2022-08-24T13:05:20.732Z,0.93
2022-08-24T13:07:55.077Z,1.10
2022-08-24T13:10:37.768Z,1.00
2022-08-24T13:13:04.552Z,1.00
2022-08-24T13:15:31.376Z,0.80
2022-08-24T13:18:09.715Z,0.90
2022-08-24T13:20:36.966Z,0.88
2022-08-24T13:23:18.690Z,1.00
2022-08-24T13:25:51.095Z,0.88
2022-08-24T13:28:21.120Z,1.00
2022-08-24T13:30:54.262Z,0.90
2022-08-24T13:33:46.242Z,1.15
2022-08-24T13:36:31.924Z,0.90
2022-08-24T13:39:38.472Z,0.80
2022-08-24T13:42:53.781Z,0.60
2022-08-24T13:45:50.553Z,0.77
2022-08-24T13:49:01.575Z,0.65
2022-08-24T13:51:44.790Z,0.77
2022-08-24T13:54:28.627Z,0.80
2022-08-24T13:57:32.035Z,0.63
2022-08-24T14:00:51.931Z,0.82
2022-08-24T14:03:22.093Z,0.70
2022-08-24T14:06:14.875Z,0.70
2022-08-24T14:09:37.887Z,0.80
2022-08-24T14:12:29.400Z,0.70
2022-08-24T14:15:01.997Z,0.65
2022-08-24T14:17:54.068Z,0.70
2022-08-24T14:21:09.720Z,0.70
2022-08-24T14:24:02.304Z,0.75
2022-08-24T14:26:36.853Z,0.70
2022-08-24T14:29:15.935Z,0.70
2022-08-24T14:32:11.894Z,0.60
2022-08-24T14:35:33.327Z,0.85
2022-08-24T14:38:14.897Z,0.85
2022-08-24T14:41:14.151Z,0.70
2022-08-24T14:44:09.945Z,0.60
2022-08-24T14:46:58.374Z,0.68
2022-08-24T14:49:36.091Z,0.63
2022-08-24T14:52:10.721Z,0.73
2022-08-24T14:55:12.797Z,0.60
2022-08-24T14:57:58.961Z,0.80
2022-08-24T15:01:07.761Z,0.80
2022-08-24T15:04:37.934Z,0.82
2022-08-24T15:07:31.204Z,0.50
2022-08-24T15:10:01.102Z,0.75
2022-08-24T15:12:38.297Z,0.70
2022-08-24T15:15:13.553Z,0.60
2022-08-24T15:18:09.474Z,0.57
2022-08-24T15:21:01.911Z,0.55
2022-08-24T15:24:03.445Z,0.60
2022-08-24T15:26:56.556Z,0.55
2022-08-24T15:29:30.472Z,0.50
2022-08-24T15:32:08.933Z,0.57
2022-08-24T15:34:54.392Z,0.65
2022-08-24T15:37:34.552Z,0.60
2022-08-24T15:40:15.578Z,0.70
2022-08-24T15:42:43.444Z,0.63
2022-08-24T15:45:11.381Z,0.90
2022-08-24T15:47:49.778Z,0.75
2022-08-24T15:50:32.066Z,0.70
2022-08-24T15:53:06.454Z,0.60
2022-08-24T15:55:44.550Z,0.70
2022-08-24T15:58:48.170Z,0.50
2022-08-24T16:01:33.408Z,0.50
2022-08-24T16:04:03.041Z,0.50
2022-08-24T16:06:32.834Z,0.73
2022-08-24T16:11:47.739Z,0.47
2022-08-24T16:14:36.877Z,0.37
2022-08-24T16:17:34.785Z,0.60
2022-08-24T16:20:07.972Z,0.60
2022-08-24T16:22:56.582Z,0.60
2022-08-24T16:25:34.631Z,0.60
2022-08-24T16:28:32.091Z,0.50
2022-08-24T16:31:07.367Z,0.40
2022-08-24T16:33:47.516Z,0.60
2022-08-24T16:36:18.806Z,0.80
2022-08-24T16:38:50.611Z,0.40
2022-08-24T16:41:22.494Z,0.50
2022-08-24T16:43:50.010Z,0.57
2022-08-24T16:46:23.313Z,0.60
2022-08-24T16:48:53.941Z,0.60
2022-08-24T16:51:24.386Z,0.60
2022-08-24T16:53:51.852Z,0.57
2022-08-24T16:56:19.241Z,0.55
2022-08-24T16:58:47.539Z,0.52
2022-08-24T17:01:16.275Z,0.43
2022-08-24T17:03:43.275Z,0.50
2022-08-24T17:06:12.512Z,0.70
2022-08-24T17:08:40.831Z,0.70
2022-08-24T17:11:08.580Z,0.70
2022-08-24T17:13:51.081Z,0.60
2022-08-24T17:16:21.597Z,0.55
2022-08-24T17:18:48.980Z,0.70
2022-08-24T17:21:16.689Z,0.70
2022-08-24T17:23:45.666Z,0.50
2022-08-24T17:26:20.503Z,0.60
2022-08-24T17:28:52.531Z,0.63
2022-08-24T17:31:19.722Z,0.50
2022-08-24T17:33:46.691Z,0.63
2022-08-24T17:36:16.139Z,0.57
2022-08-24T17:38:54.668Z,0.55
2022-08-24T17:41:26.504Z,0.47
2022-08-24T17:43:54.784Z,0.57
2022-08-24T17:46:22.542Z,0.73
2022-08-24T17:48:49.895Z,0.70
2022-08-24T17:51:17.284Z,0.77
2022-08-24T17:53:44.213Z,0.63
2022-08-24T17:56:14.019Z,0.60
2022-08-24T17:59:01.960Z,0.75
2022-08-24T18:01:30.232Z,0.70
2022-08-24T18:03:57.338Z,0.70
2022-08-24T18:06:27.759Z,0.60
2022-08-24T18:08:56.739Z,0.77
2022-08-24T18:11:26.114Z,0.90
2022-08-24T18:13:54.453Z,0.77
2022-08-24T18:16:24.773Z,0.73
2022-08-24T18:18:54.068Z,0.60
2022-08-24T18:21:22.501Z,0.90
2022-08-24T18:23:50.628Z,0.85
2022-08-24T18:26:28.080Z,0.65
2022-08-24T18:29:02.522Z,0.85
2022-08-24T18:31:31.117Z,0.65
2022-08-24T18:33:58.086Z,0.90
2022-08-24T18:36:28.027Z,0.95
2022-08-24T18:38:54.914Z,1.00
2022-08-24T18:41:21.986Z,0.85
2022-08-24T18:43:48.995Z,0.88
2022-08-24T18:46:16.049Z,1.00
2022-08-24T18:48:42.938Z,1.20
2022-08-24T18:51:14.833Z,0.77
2022-08-24T18:53:41.952Z,1.20
2022-08-24T18:56:12.449Z,1.10
2022-08-24T18:58:40.213Z,0.98
2022-08-24T19:01:07.517Z,0.90
2022-08-24T19:03:35.118Z,1.35
2022-08-24T19:06:02.153Z,1.08
2022-08-24T19:08:29.072Z,1.50
2022-08-24T19:10:56.246Z,2.03
2022-08-24T19:13:23.407Z,1.17
2022-08-24T19:15:51.060Z,1.38
2022-08-24T19:18:21.561Z,1.48
2022-08-24T19:20:52.465Z,1.30
2022-08-24T19:23:33.104Z,1.13
2022-08-24T19:26:01.455Z,1.33
2022-08-24T19:28:29.130Z,1.10
2022-08-24T19:31:04.097Z,1.50
2022-08-24T19:33:41.200Z,1.42
2022-08-24T19:36:08.565Z,1.83
2022-08-24T19:38:35.649Z,1.42
2022-08-24T19:41:11.829Z,1.42
2022-08-24T19:44:01.008Z,1.30
2022-08-24T19:46:28.291Z,1.50
2022-08-24T19:48:55.464Z,1.20
2022-08-24T19:51:22.371Z,1.27
2022-08-24T19:53:49.259Z,1.23
2022-08-24T19:56:16.129Z,1.17
2022-08-24T19:59:02.119Z,1.58
2022-08-24T20:01:34.887Z,1.52
2022-08-24T20:04:06.928Z,1.20
2022-08-24T20:06:36.153Z,1.30
2022-08-24T20:09:05.265Z,1.40
2022-08-24T20:11:32.478Z,1.80
2022-08-24T20:13:59.438Z,1.30
2022-08-24T20:16:32.766Z,1.15
2022-08-24T20:19:00.704Z,1.05
2022-08-24T20:21:30.040Z,1.25
2022-08-24T20:24:00.421Z,1.20
2022-08-24T20:26:32.784Z,1.25
2022-08-24T20:28:59.849Z,1.83
2022-08-24T20:31:28.369Z,0.98
2022-08-24T20:33:57.262Z,1.00
2022-08-24T20:36:37.894Z,0.93
2022-08-24T20:39:09.392Z,1.30
2022-08-24T20:41:37.250Z,1.40
2022-08-24T20:44:04.931Z,0.98
2022-08-24T20:46:32.413Z,1.30
2022-08-24T20:49:01.042Z,1.25
2022-08-24T20:51:27.922Z,1.30
2022-08-24T20:53:55.537Z,1.00
2022-08-24T20:56:31.030Z,1.90
2022-08-24T20:59:04.322Z,1.50
2022-08-24T21:01:32.337Z,1.30
2022-08-24T21:04:04.161Z,1.40
2022-08-24T21:06:32.778Z,1.17
2022-08-24T21:09:00.683Z,1.38
2022-08-24T21:11:27.555Z,1.33
2022-08-24T21:13:54.453Z,1.40
2022-08-24T21:16:21.382Z,1.58
2022-08-24T21:18:48.324Z,1.40
2022-08-24T21:21:15.702Z,1.60
2022-08-24T21:23:42.765Z,1.35
2022-08-24T21:26:14.160Z,1.45
2022-08-24T21:28:43.647Z,1.45
2022-08-24T21:31:10.797Z,1.17
2022-08-24T21:33:56.857Z,1.13
2022-08-24T21:36:25.651Z,1.30
2022-08-24T21:38:54.661Z,1.40
2022-08-24T21:41:22.186Z,1.10
2022-08-24T21:43:49.563Z,1.40
2022-08-24T21:46:17.103Z,1.30
2022-08-24T21:48:44.031Z,1.30
2022-08-24T21:51:10.887Z,1.70
2022-08-24T21:53:37.788Z,1.45
2022-08-24T21:56:04.967Z,1.40
2022-08-24T21:58:31.917Z,1.30
2022-08-24T22:00:59.263Z,1.67
2022-08-24T22:03:31.605Z,1.63
2022-08-24T22:06:07.945Z,1.83
2022-08-24T22:08:36.153Z,1.48
2022-08-24T22:11:03.163Z,1.50
2022-08-24T22:13:30.051Z,1.42
2022-08-24T22:15:57.002Z,1.40
2022-08-24T22:18:24.141Z,1.42
2022-08-24T22:20:51.150Z,1.50
2022-08-24T22:23:18.054Z,1.70
2022-08-24T22:25:44.956Z,1.70
2022-08-24T22:28:11.793Z,1.40
2022-08-24T22:30:38.700Z,1.55
2022-08-24T22:33:06.129Z,1.50
2022-08-24T22:35:34.548Z,1.70
2022-08-24T22:38:12.541Z,1.52
2022-08-24T22:40:39.841Z,1.45
2022-08-24T22:43:06.779Z,1.65
2022-08-24T22:45:33.649Z,1.50
2022-08-24T22:48:00.499Z,1.42
2022-08-24T22:50:27.491Z,1.40
2022-08-24T22:52:54.867Z,1.90
2022-08-24T22:55:22.739Z,1.70
2022-08-24T22:57:51.642Z,1.70
2022-08-24T23:00:19.029Z,1.58
2022-08-24T23:02:46.011Z,1.50
2022-08-24T23:05:13.380Z,1.98
2022-08-24T23:07:40.305Z,1.88
2022-08-24T23:10:08.359Z,1.67
2022-08-24T23:12:35.262Z,1.90
2022-08-24T23:15:02.303Z,1.80
2022-08-24T23:17:29.291Z,1.98
2022-08-24T23:20:05.287Z,1.40
2022-08-24T23:22:38.297Z,1.77
2022-08-24T23:25:08.510Z,1.60
2022-08-24T23:27:38.249Z,2.00
2022-08-24T23:30:12.661Z,2.15
2022-08-24T23:32:40.416Z,1.50
2022-08-24T23:35:10.491Z,1.40
2022-08-24T23:37:37.410Z,2.00
2022-08-24T23:40:05.489Z,1.70
2022-08-24T23:42:32.476Z,1.52
2022-08-24T23:44:59.345Z,1.88
2022-08-24T23:47:26.798Z,2.00
2022-08-24T23:49:55.333Z,1.80
2022-08-24T23:52:26.683Z,1.60
2022-08-24T23:55:19.951Z,2.30
2022-08-24T23:57:46.090Z,2.10
